createdAt,value
2022-12-03T00:00:12.755Z,-1.69
2022-12-03T00:03:01.521Z,-1.65
2022-12-03T00:05:29.591Z,-1.74
2022-12-03T00:07:57.494Z,-1.86
2022-12-03T00:10:25.497Z,-1.73
2022-12-03T00:12:53.359Z,-1.93
2022-12-03T00:15:21.236Z,-1.79
2022-12-03T00:17:49.203Z,-1.59
2022-12-03T00:20:24.419Z,-1.79
2022-12-03T00:22:52.494Z,-1.85
2022-12-03T00:25:20.424Z,-1.82
2022-12-03T00:27:48.266Z,-1.96
2022-12-03T00:30:16.353Z,-1.75
2022-12-03T00:32:44.259Z,-1.92
2022-12-03T00:35:12.171Z,-1.80
2022-12-03T00:37:40.049Z,-1.83
2022-12-03T00:40:08.894Z,-1.64
2022-12-03T00:42:36.767Z,-1.68
2022-12-03T00:45:05.668Z,-1.56
2022-12-03T00:47:33.604Z,-1.60
2022-12-03T00:50:01.553Z,-1.72
2022-12-03T00:52:29.418Z,-1.76
2022-12-03T00:54:57.329Z,-1.75
2022-12-03T00:57:25.203Z,-1.88
2022-12-03T00:59:53.041Z,-1.65
2022-12-03T01:02:21.114Z,-1.61
2022-12-03T01:04:49.065Z,-1.59
2022-12-03T01:07:17.008Z,-1.55
2022-12-03T01:09:44.839Z,-1.55
2022-12-03T01:12:12.746Z,-1.55
2022-12-03T01:14:40.620Z,-1.60
2022-12-03T01:17:08.485Z,-1.57
2022-12-03T01:19:36.564Z,-1.44
2022-12-03T01:22:04.961Z,-1.48
2022-12-03T01:24:33.267Z,-1.41
2022-12-03T01:27:01.197Z,-1.37
2022-12-03T01:29:29.047Z,-1.37
2022-12-03T01:32:15.703Z,-1.51
2022-12-03T01:34:45.595Z,-1.79
2022-12-03T01:37:14.628Z,-1.63
2022-12-03T01:39:42.785Z,-1.64
2022-12-03T01:42:19.011Z,-1.54
2022-12-03T01:44:48.699Z,-1.48
2022-12-03T01:47:19.938Z,-1.47
2022-12-03T01:50:12.756Z,-1.80
2022-12-03T01:52:40.773Z,-1.93
2022-12-03T01:55:17.118Z,-1.81
2022-12-03T01:57:50.370Z,-1.74
2022-12-03T02:00:23.011Z,-1.64
2022-12-03T02:02:57.560Z,-1.63
2022-12-03T02:05:31.596Z,-1.85
2022-12-03T02:08:00.913Z,-1.70
2022-12-03T02:10:36.007Z,-1.69
2022-12-03T02:13:10.356Z,-1.99
2022-12-03T02:15:40.009Z,-1.93
2022-12-03T02:18:08.909Z,-1.70
2022-12-03T02:21:03.297Z,-1.68
2022-12-03T02:24:01.162Z,-1.73
2022-12-03T02:26:29.893Z,-1.81
2022-12-03T02:28:57.845Z,-2.06
2022-12-03T02:31:25.864Z,-2.26
2022-12-03T02:33:53.883Z,-2.05
2022-12-03T02:36:21.812Z,-1.97
2022-12-03T02:38:51.242Z,-1.93
2022-12-03T02:41:40.140Z,-1.82
2022-12-03T02:44:08.902Z,-1.97
2022-12-03T02:46:36.928Z,-1.88
2022-12-03T02:49:06.319Z,-1.71
2022-12-03T02:51:34.833Z,-1.80
2022-12-03T02:54:03.818Z,-1.79
2022-12-03T02:56:32.933Z,-1.86
2022-12-03T02:59:04.617Z,-2.00
2022-12-03T03:01:32.637Z,-1.94
2022-12-03T03:04:02.527Z,-1.95
2022-12-03T03:06:30.772Z,-1.99
2022-12-03T03:08:58.870Z,-1.90
2022-12-03T03:11:27.079Z,-1.74
2022-12-03T03:13:55.392Z,-1.77
2022-12-03T03:16:23.330Z,-1.81
2022-12-03T03:18:51.266Z,-1.67
2022-12-03T03:21:19.334Z,-1.58
2022-12-03T03:23:47.300Z,-1.91
2022-12-03T03:26:16.537Z,-1.99
2022-12-03T03:28:49.941Z,-1.86
2022-12-03T03:31:23.033Z,-1.77
2022-12-03T03:33:51.669Z,-1.72
2022-12-03T03:36:20.300Z,-1.62
2022-12-03T03:38:48.815Z,-1.60
2022-12-03T03:41:17.550Z,-1.65
2022-12-03T03:43:47.636Z,-1.71
2022-12-03T03:46:17.235Z,-1.77
2022-12-03T03:48:45.672Z,-1.66
2022-12-03T03:51:16.431Z,-1.85
2022-12-03T03:53:49.715Z,-1.89
2022-12-03T03:56:20.162Z,-1.83
2022-12-03T03:58:48.040Z,-1.77
2022-12-03T04:01:17.787Z,-1.75
2022-12-03T04:03:46.417Z,-1.67
2022-12-03T04:06:14.308Z,-1.65
2022-12-03T04:08:42.190Z,-1.80
2022-12-03T04:11:28.877Z,-1.70
2022-12-03T04:13:56.746Z,-1.48
2022-12-03T04:16:24.761Z,-1.65
2022-12-03T04:18:52.846Z,-1.82
2022-12-03T04:21:42.389Z,-2.02
2022-12-03T04:24:11.815Z,-1.97
2022-12-03T04:26:58.436Z,-1.75
2022-12-03T04:29:26.356Z,-1.76
2022-12-03T04:32:12.857Z,-1.92
2022-12-03T04:34:59.643Z,-1.92
2022-12-03T04:37:27.720Z,-1.91
2022-12-03T04:39:55.555Z,-1.92
2022-12-03T04:42:23.408Z,-1.71
2022-12-03T04:44:51.424Z,-1.54
2022-12-03T04:47:22.138Z,-1.51
2022-12-03T04:49:51.835Z,-1.70
2022-12-03T04:52:21.027Z,-1.61
2022-12-03T04:54:49.000Z,-1.45
2022-12-03T04:57:17.387Z,-1.40
2022-12-03T04:59:45.278Z,-1.60
2022-12-03T05:02:13.197Z,-1.71
2022-12-03T05:04:41.937Z,-1.67
2022-12-03T05:07:11.540Z,-1.67
2022-12-03T05:09:39.387Z,-1.55
2022-12-03T05:12:07.345Z,-1.53
2022-12-03T05:14:36.479Z,-1.53
2022-12-03T05:17:04.396Z,-1.53
2022-12-03T05:19:50.883Z,-1.60
2022-12-03T05:22:18.743Z,-1.70
2022-12-03T05:24:46.569Z,-1.72
2022-12-03T05:27:15.812Z,-1.56
2022-12-03T05:29:46.708Z,-1.50
2022-12-03T05:32:14.992Z,-1.55
2022-12-03T05:34:42.897Z,-1.81
2022-12-03T05:37:11.051Z,-1.69
2022-12-03T05:39:38.976Z,-1.75
2022-12-03T05:42:27.122Z,-1.67
2022-12-03T05:44:55.269Z,-1.53
2022-12-03T05:47:23.448Z,-1.53
2022-12-03T05:49:51.516Z,-1.66
2022-12-03T05:52:19.374Z,-1.54
2022-12-03T05:54:47.280Z,-1.53
2022-12-03T05:57:15.159Z,-1.51
2022-12-03T05:59:43.032Z,-1.50
2022-12-03T06:02:11.009Z,-1.54
2022-12-03T06:04:38.851Z,-1.63
2022-12-03T06:07:12.374Z,-1.77
2022-12-03T06:09:41.814Z,-1.80
2022-12-03T06:12:09.771Z,-1.95
2022-12-03T06:14:37.628Z,-1.85
2022-12-03T06:17:05.465Z,-1.90
2022-12-03T06:19:34.032Z,-1.87
2022-12-03T06:22:01.922Z,-1.77
2022-12-03T06:24:29.872Z,-1.69
2022-12-03T06:26:57.796Z,-1.60
2022-12-03T06:29:25.651Z,-1.49
2022-12-03T06:31:53.553Z,-1.39
2022-12-03T06:34:21.561Z,-1.45
2022-12-03T06:36:50.195Z,-1.64
2022-12-03T06:39:18.738Z,-1.62
2022-12-03T06:41:46.625Z,-1.51
2022-12-03T06:44:14.882Z,-1.41
2022-12-03T06:46:42.876Z,-1.42
2022-12-03T06:49:11.000Z,-1.45
2022-12-03T06:51:39.075Z,-1.67
2022-12-03T06:54:07.048Z,-1.76
2022-12-03T06:56:41.805Z,-1.54
2022-12-03T06:59:13.654Z,-1.49
2022-12-03T07:01:41.620Z,-1.62
2022-12-03T07:04:09.979Z,-1.66
2022-12-03T07:06:37.908Z,-1.75
2022-12-03T07:09:05.874Z,-1.59
2022-12-03T07:11:39.932Z,-1.40
2022-12-03T07:14:11.798Z,-1.44
2022-12-03T07:16:43.022Z,-1.47
2022-12-03T07:19:11.795Z,-1.45
2022-12-03T07:21:39.898Z,-1.48
2022-12-03T07:24:08.875Z,-1.39
2022-12-03T07:26:36.892Z,-1.38
2022-12-03T07:29:04.909Z,-1.22
2022-12-03T07:31:32.850Z,-1.18
2022-12-03T07:34:02.150Z,-1.15
2022-12-03T07:36:30.202Z,-1.11
2022-12-03T07:38:58.081Z,-1.26
2022-12-03T07:41:26.062Z,-1.32
2022-12-03T07:43:54.144Z,-1.39
2022-12-03T07:46:22.256Z,-1.26
2022-12-03T07:48:50.162Z,-1.25
2022-12-03T07:51:18.173Z,-1.41
2022-12-03T07:53:46.021Z,-1.32
2022-12-03T07:56:13.924Z,-1.05
2022-12-03T07:58:41.762Z,-1.32
2022-12-03T08:01:10.417Z,-1.35
2022-12-03T08:03:38.650Z,-1.10
2022-12-03T08:06:06.952Z,-0.93
2022-12-03T08:08:34.865Z,-0.93
2022-12-03T08:11:03.350Z,-1.07
2022-12-03T08:13:34.264Z,-0.96
2022-12-03T08:16:21.746Z,-1.04
2022-12-03T08:18:51.346Z,-0.82
2022-12-03T08:21:21.496Z,-0.90
2022-12-03T08:23:49.381Z,-0.69
2022-12-03T08:26:27.951Z,-0.66
2022-12-03T08:28:55.780Z,-0.63
2022-12-03T08:31:32.949Z,-0.69
2022-12-03T08:34:21.608Z,-0.46
2022-12-03T08:36:56.669Z,-0.61
2022-12-03T08:39:35.705Z,-0.93
2022-12-03T08:42:41.504Z,-0.62
2022-12-03T08:45:31.893Z,-0.40
2022-12-03T08:48:05.881Z,-0.57
2022-12-03T08:50:40.144Z,-0.37
2022-12-03T08:53:13.992Z,-0.25
2022-12-03T08:55:53.327Z,-0.47
2022-12-03T08:58:31.609Z,-0.78
2022-12-03T09:01:30.587Z,-0.69
2022-12-03T09:04:43.829Z,-0.26
2022-12-03T09:07:11.751Z,-0.69
2022-12-03T09:09:40.171Z,-0.50
2022-12-03T09:12:08.083Z,-0.52
2022-12-03T09:14:35.955Z,-0.41
2022-12-03T09:17:03.894Z,-0.49
2022-12-03T09:19:31.952Z,-0.44
2022-12-03T09:21:59.951Z,-0.28
2022-12-03T09:24:27.855Z,-0.30
2022-12-03T09:26:55.670Z,-0.41
2022-12-03T09:29:23.837Z,-0.57
2022-12-03T09:31:51.760Z,-0.59
2022-12-03T09:34:19.843Z,-0.74
2022-12-03T09:36:47.713Z,-0.82
2022-12-03T09:39:15.740Z,-0.72
2022-12-03T09:41:44.007Z,-0.55
2022-12-03T09:44:17.615Z,-0.62
2022-12-03T09:46:47.801Z,-0.66
2022-12-03T09:49:19.088Z,-0.79
2022-12-03T09:51:47.316Z,-0.53
2022-12-03T09:54:24.296Z,-0.69
2022-12-03T09:56:55.094Z,-0.63
2022-12-03T09:59:27.450Z,-0.62
2022-12-03T10:01:55.844Z,-0.51
2022-12-03T10:04:24.794Z,-0.38
2022-12-03T10:06:52.847Z,-0.48
2022-12-03T10:09:27.272Z,-0.34
2022-12-03T10:11:59.920Z,-0.31
2022-12-03T10:14:28.545Z,-0.18
2022-12-03T10:16:58.445Z,-0.25
2022-12-03T10:19:31.651Z,-0.64
2022-12-03T10:21:59.641Z,-0.70
2022-12-03T10:24:32.936Z,-0.62
2022-12-03T10:27:04.766Z,-0.42
2022-12-03T10:29:35.790Z,-0.20
2022-12-03T10:32:12.756Z,-0.13
2022-12-03T10:34:42.628Z,-0.10
2022-12-03T10:37:21.072Z,0.11
2022-12-03T10:40:00.044Z,0.02
2022-12-03T10:42:32.369Z,0.20
2022-12-03T10:45:22.928Z,0.30
2022-12-03T10:48:15.209Z,-0.06
2022-12-03T10:51:03.329Z,-0.18
2022-12-03T10:53:38.473Z,-0.14
2022-12-03T10:56:13.643Z,-0.41
2022-12-03T10:58:41.898Z,-0.35
2022-12-03T11:01:23.040Z,-0.31
2022-12-03T11:03:52.386Z,-0.14
2022-12-03T11:06:23.120Z,-0.11
2022-12-03T11:08:58.498Z,-0.12
2022-12-03T11:11:30.587Z,-0.04
2022-12-03T11:14:04.165Z,-0.11
2022-12-03T11:16:41.275Z,-0.07
2022-12-03T11:19:40.148Z,-0.08
2022-12-03T11:22:10.761Z,-0.22
2022-12-03T11:24:40.442Z,-0.30
2022-12-03T11:27:11.081Z,-0.15
2022-12-03T11:30:01.097Z,-0.11
2022-12-03T11:32:38.259Z,-0.30
2022-12-03T11:35:27.749Z,-0.12
2022-12-03T11:38:34.540Z,-0.07
2022-12-03T11:41:30.726Z,-0.14
2022-12-03T11:44:25.152Z,-0.02
2022-12-03T11:46:54.116Z,-0.09
2022-12-03T11:49:37.679Z,0.10
2022-12-03T11:52:22.213Z,0.12
2022-12-03T11:54:56.357Z,-0.21
2022-12-03T11:57:38.455Z,-0.14
2022-12-03T12:00:15.106Z,-0.02
2022-12-03T12:02:43.464Z,-0.10
2022-12-03T12:05:22.479Z,-0.30
2022-12-03T12:07:51.744Z,-0.18
2022-12-03T12:10:47.937Z,-0.28
2022-12-03T12:13:31.406Z,-0.24
2022-12-03T12:16:05.864Z,-0.13
2022-12-03T12:18:52.422Z,-0.14
2022-12-03T12:21:50.017Z,0.00
2022-12-03T12:24:45.708Z,0.10
2022-12-03T12:27:23.210Z,-0.23
2022-12-03T12:29:58.664Z,-0.16
2022-12-03T12:33:12.889Z,-0.09
2022-12-03T12:35:41.347Z,0.02
2022-12-03T12:38:14.918Z,-0.20
2022-12-03T12:40:49.126Z,-0.11
2022-12-03T12:43:25.316Z,-0.22
2022-12-03T12:45:56.568Z,-0.15
2022-12-03T12:48:33.692Z,-0.08
2022-12-03T12:51:12.112Z,0.04
2022-12-03T12:53:42.825Z,-0.17
2022-12-03T12:56:30.219Z,-0.23
2022-12-03T12:59:10.854Z,-0.23
2022-12-03T13:01:41.210Z,-0.26
2022-12-03T13:04:16.573Z,-0.16
2022-12-03T13:06:47.876Z,-0.10
2022-12-03T13:09:20.433Z,-0.10
2022-12-03T13:12:03.797Z,-0.22
2022-12-03T13:14:36.967Z,-0.11
2022-12-03T13:17:15.969Z,0.06
2022-12-03T13:19:49.426Z,0.21
2022-12-03T13:22:29.247Z,0.13
2022-12-03T13:24:58.571Z,0.13
2022-12-03T13:27:29.954Z,0.08
2022-12-03T13:30:19.724Z,-0.04
2022-12-03T13:32:47.572Z,0.15
2022-12-03T13:35:35.825Z,0.09
2022-12-03T13:38:13.634Z,0.12
2022-12-03T13:40:42.036Z,0.03
2022-12-03T13:43:18.563Z,-0.18
2022-12-03T13:45:50.286Z,-0.07
2022-12-03T13:48:24.152Z,0.13
2022-12-03T13:50:54.283Z,0.03
2022-12-03T13:53:36.738Z,0.13
2022-12-03T13:56:33.954Z,-0.14
2022-12-03T13:59:04.019Z,-0.17
2022-12-03T14:01:32.277Z,-0.27
2022-12-03T14:04:00.300Z,-0.19
2022-12-03T14:06:28.351Z,-0.08
2022-12-03T14:08:56.473Z,-0.22
2022-12-03T14:11:43.299Z,-0.24
2022-12-03T14:14:11.201Z,-0.08
2022-12-03T14:16:39.145Z,-0.13
2022-12-03T14:19:07.480Z,-0.20
2022-12-03T14:21:35.369Z,-0.15
2022-12-03T14:24:03.422Z,-0.11
2022-12-03T14:26:31.360Z,-0.13
2022-12-03T14:28:59.255Z,-0.14
2022-12-03T14:31:27.189Z,-0.04
2022-12-03T14:33:55.140Z,0.03
2022-12-03T14:36:23.056Z,0.03
2022-12-03T14:38:51.221Z,-0.12
2022-12-03T14:41:39.366Z,-0.27
2022-12-03T14:44:07.323Z,-0.23
2022-12-03T14:46:35.230Z,-0.27
2022-12-03T14:49:03.268Z,-0.15
2022-12-03T14:51:31.151Z,-0.01
2022-12-03T14:53:59.147Z,0.02
2022-12-03T14:56:27.004Z,-0.04
2022-12-03T14:58:54.916Z,0.02
2022-12-03T15:01:22.874Z,-0.03
2022-12-03T15:03:50.860Z,0.00
2022-12-03T15:06:18.789Z,0.06
2022-12-03T15:08:47.284Z,-0.07
2022-12-03T15:11:15.147Z,-0.04
2022-12-03T15:13:42.998Z,-0.16
2022-12-03T15:16:10.979Z,0.00
2022-12-03T15:18:38.880Z,0.10
2022-12-03T15:21:08.031Z,0.11
2022-12-03T15:23:37.002Z,0.03
2022-12-03T15:26:05.160Z,-0.09
2022-12-03T15:28:33.176Z,-0.10
2022-12-03T15:31:01.623Z,-0.06
2022-12-03T15:33:29.547Z,-0.03
2022-12-03T15:35:57.513Z,-0.12
2022-12-03T15:38:25.413Z,-0.09
2022-12-03T15:40:53.331Z,-0.17
2022-12-03T15:43:21.368Z,-0.06
2022-12-03T15:45:49.298Z,-0.08
2022-12-03T15:48:17.221Z,-0.14
2022-12-03T15:50:45.097Z,-0.19
2022-12-03T15:53:13.022Z,-0.21
2022-12-03T15:55:41.067Z,-0.19
2022-12-03T15:58:08.994Z,-0.16
2022-12-03T16:00:36.905Z,-0.23
2022-12-03T16:03:04.960Z,-0.11
2022-12-03T16:05:32.845Z,-0.13
2022-12-03T16:08:00.968Z,0.01
2022-12-03T16:10:29.083Z,0.07
2022-12-03T16:12:57.010Z,0.03
2022-12-03T16:15:27.292Z,-0.02
2022-12-03T16:17:55.574Z,0.06
2022-12-03T16:20:23.789Z,0.06
2022-12-03T16:22:52.097Z,0.08
2022-12-03T16:25:19.941Z,0.07
2022-12-03T16:27:47.882Z,0.12
2022-12-03T16:30:15.998Z,0.05
2022-12-03T16:32:43.856Z,0.09
2022-12-03T16:35:11.705Z,0.11
2022-12-03T16:37:39.561Z,0.05
2022-12-03T16:40:08.789Z,-0.05
2022-12-03T16:42:37.239Z,-0.04
2022-12-03T16:45:09.773Z,-0.14
2022-12-03T16:47:37.847Z,-0.10
2022-12-03T16:50:09.857Z,-0.07
2022-12-03T16:52:40.837Z,0.14
2022-12-03T16:55:09.526Z,0.14
2022-12-03T16:57:37.975Z,0.09
2022-12-03T17:00:07.539Z,0.14
2022-12-03T17:02:35.539Z,0.00
2022-12-03T17:05:03.746Z,0.10
2022-12-03T17:07:31.691Z,0.15
2022-12-03T17:09:59.555Z,0.08
2022-12-03T17:12:37.454Z,-0.02
2022-12-03T17:15:15.362Z,-0.02
2022-12-03T17:17:43.233Z,-0.10
2022-12-03T17:20:13.215Z,-0.03
2022-12-03T17:22:41.641Z,0.12
2022-12-03T17:25:10.745Z,0.15
2022-12-03T17:27:44.805Z,0.22
2022-12-03T17:30:14.022Z,0.20
2022-12-03T17:32:41.879Z,0.10
2022-12-03T17:35:11.266Z,0.00
2022-12-03T17:37:40.885Z,0.13
2022-12-03T17:40:12.643Z,0.27
2022-12-03T17:42:40.655Z,0.28
2022-12-03T17:45:09.206Z,0.13
2022-12-03T17:47:37.088Z,0.06
2022-12-03T17:50:06.999Z,0.18
2022-12-03T17:52:34.948Z,0.15
2022-12-03T17:55:14.227Z,0.22
2022-12-03T17:57:46.068Z,0.16
2022-12-03T18:00:14.431Z,0.31
2022-12-03T18:02:45.800Z,0.23
2022-12-03T18:05:14.152Z,0.38
2022-12-03T18:07:42.164Z,0.46
2022-12-03T18:10:10.245Z,0.26
2022-12-03T18:12:38.221Z,0.43
2022-12-03T18:15:07.223Z,0.46
2022-12-03T18:17:35.434Z,0.23
2022-12-03T18:20:04.222Z,0.25
2022-12-03T18:22:32.072Z,0.39
2022-12-03T18:25:00.557Z,0.44
2022-12-03T18:27:28.376Z,0.50
2022-12-03T18:29:56.612Z,0.45
2022-12-03T18:32:29.729Z,0.40
2022-12-03T18:34:58.349Z,0.53
2022-12-03T18:37:28.732Z,0.54
2022-12-03T18:39:58.097Z,0.64
2022-12-03T18:42:26.529Z,0.60
2022-12-03T18:44:56.816Z,0.58
2022-12-03T18:47:28.699Z,0.50
2022-12-03T18:49:57.775Z,0.46
2022-12-03T18:52:26.143Z,0.50
2022-12-03T18:54:55.316Z,0.45
2022-12-03T18:57:23.448Z,0.42
2022-12-03T18:59:51.574Z,0.42
2022-12-03T19:05:10.145Z,0.33
2022-12-03T19:07:38.261Z,0.30
2022-12-03T19:10:07.708Z,0.47
2022-12-03T19:12:36.275Z,0.44
2022-12-03T19:15:06.135Z,0.46
2022-12-03T19:17:33.987Z,0.46
2022-12-03T19:20:01.848Z,0.37
2022-12-03T19:22:29.822Z,0.50
2022-12-03T19:24:57.711Z,0.63
2022-12-03T19:27:25.607Z,0.64
2022-12-03T19:29:53.904Z,0.52
2022-12-03T19:32:22.250Z,0.55
2022-12-03T19:34:50.556Z,0.52
2022-12-03T19:37:18.409Z,0.47
2022-12-03T19:39:46.500Z,0.61
2022-12-03T19:42:14.500Z,0.68
2022-12-03T19:44:42.402Z,0.62
2022-12-03T19:47:10.469Z,0.53
2022-12-03T19:49:38.342Z,0.48
2022-12-03T19:52:06.220Z,0.44
2022-12-03T19:54:34.058Z,0.43
2022-12-03T19:57:01.901Z,0.28
2022-12-03T19:59:29.751Z,0.34
2022-12-03T20:01:57.744Z,0.41
2022-12-03T20:04:25.853Z,0.47
2022-12-03T20:06:53.717Z,0.40
2022-12-03T20:09:22.501Z,0.34
2022-12-03T20:11:51.255Z,0.45
2022-12-03T20:14:19.841Z,0.42
2022-12-03T20:16:47.835Z,0.42
2022-12-03T20:19:17.904Z,0.45
2022-12-03T20:21:45.945Z,0.56
2022-12-03T20:24:17.183Z,0.54
2022-12-03T20:26:45.316Z,0.57
2022-12-03T20:29:13.343Z,0.59
2022-12-03T20:31:41.402Z,0.62
2022-12-03T20:34:10.945Z,0.63
2022-12-03T20:36:39.880Z,0.66
2022-12-03T20:39:08.462Z,0.65
2022-12-03T20:41:37.370Z,0.68
2022-12-03T20:44:07.656Z,0.72
2022-12-03T20:46:36.416Z,0.70
2022-12-03T20:49:04.803Z,0.72
2022-12-03T20:51:32.901Z,0.64
2022-12-03T20:54:02.430Z,0.76
2022-12-03T20:56:34.916Z,0.75
2022-12-03T20:59:06.354Z,0.74
2022-12-03T21:01:36.027Z,0.74
2022-12-03T21:04:05.080Z,0.82
2022-12-03T21:06:35.891Z,0.78
2022-12-03T21:09:06.708Z,0.84
2022-12-03T21:11:36.033Z,0.84
2022-12-03T21:14:05.044Z,0.77
2022-12-03T21:17:07.158Z,0.80
2022-12-03T21:19:27.318Z,0.82
2022-12-03T21:21:55.271Z,0.76
2022-12-03T21:24:23.198Z,0.72
2022-12-03T21:26:51.290Z,0.75
2022-12-03T21:29:19.341Z,0.68
2022-12-03T21:31:47.177Z,0.67
2022-12-03T21:34:15.156Z,0.76
2022-12-03T21:36:43.112Z,0.83
2022-12-03T21:39:11.122Z,0.92
2022-12-03T21:41:39.078Z,0.90
2022-12-03T21:44:06.994Z,0.85
2022-12-03T21:47:09.509Z,0.91
2022-12-03T21:49:23.467Z,0.94
2022-12-03T21:51:51.477Z,0.88
2022-12-03T21:54:20.375Z,0.81
2022-12-03T21:56:48.220Z,0.76
2022-12-03T21:59:16.502Z,0.88
2022-12-03T22:01:47.400Z,0.93
2022-12-03T22:04:15.719Z,0.99
2022-12-03T22:06:43.694Z,1.03
2022-12-03T22:09:11.689Z,1.09
2022-12-03T22:11:39.665Z,0.99
2022-12-03T22:14:08.445Z,0.94
2022-12-03T22:16:36.362Z,1.04
2022-12-03T22:19:04.729Z,1.03
2022-12-03T22:21:32.717Z,1.02
2022-12-03T22:24:00.660Z,1.09
2022-12-03T22:26:28.632Z,1.08
2022-12-03T22:28:56.639Z,0.96
2022-12-03T22:31:24.537Z,0.86
2022-12-03T22:33:52.609Z,0.84
2022-12-03T22:36:21.790Z,0.80
2022-12-03T22:38:51.023Z,0.97
2022-12-03T22:41:19.578Z,1.14
2022-12-03T22:43:48.383Z,1.11
2022-12-03T22:46:17.274Z,0.95
2022-12-03T22:48:47.108Z,0.91
2022-12-03T22:51:19.371Z,1.02
2022-12-03T22:53:48.591Z,1.13
2022-12-03T22:56:17.316Z,1.16
2022-12-03T22:58:45.214Z,1.19
2022-12-03T23:01:26.605Z,0.97
2022-12-03T23:03:55.573Z,0.95
2022-12-03T23:06:24.491Z,1.07
2022-12-03T23:08:54.683Z,1.09
2022-12-03T23:11:22.771Z,1.21
2022-12-03T23:13:50.681Z,1.19
2022-12-03T23:16:23.606Z,1.12
2022-12-03T23:18:52.895Z,1.16
2022-12-03T23:21:29.824Z,1.11
2022-12-03T23:24:00.638Z,1.12
2022-12-03T23:26:29.008Z,1.12
2022-12-03T23:28:57.023Z,1.15
2022-12-03T23:31:29.646Z,1.11
2022-12-03T23:33:58.752Z,1.04
2022-12-03T23:36:29.800Z,0.99
2022-12-03T23:38:57.733Z,0.97
2022-12-03T23:41:26.389Z,0.97
2022-12-03T23:43:55.776Z,0.93
2022-12-03T23:46:26.343Z,1.02
2022-12-03T23:48:54.773Z,1.12
2022-12-03T23:51:24.652Z,1.08
2022-12-03T23:53:54.387Z,1.01
2022-12-03T23:56:30.550Z,0.99
2022-12-03T23:58:59.305Z,1.09
